createdAt,value
2019-04-28T00:01:01.044Z,12.20
2019-04-28T00:03:31.979Z,12.20
2019-04-28T00:06:03.074Z,12.20
2019-04-28T00:08:35.278Z,12.20
2019-04-28T00:11:06.641Z,12.10
2019-04-28T00:13:37.923Z,12.10
2019-04-28T00:16:08.901Z,12.00
2019-04-28T00:18:41.519Z,12.00
2019-04-28T00:21:22.386Z,12.00
2019-04-28T00:24:11.448Z,11.90
2019-04-28T00:26:54.577Z,11.90
2019-04-28T00:29:37.527Z,11.90
2019-04-28T00:32:01.871Z,11.90
2019-04-28T00:34:32.958Z,11.80
2019-04-28T00:37:21.190Z,11.80
2019-04-28T00:39:52.122Z,11.80
2019-04-28T00:42:23.330Z,11.70
2019-04-28T00:44:56.371Z,11.70
2019-04-28T00:47:27.483Z,11.70
2019-04-28T00:49:58.362Z,11.60
2019-04-28T00:52:29.194Z,11.60
2019-04-28T00:55:01.165Z,11.70
2019-04-28T00:57:32.218Z,11.60
2019-04-28T01:00:03.226Z,11.60
2019-04-28T01:02:42.814Z,11.50
2019-04-28T01:05:14.202Z,11.50
2019-04-28T01:07:45.210Z,11.50
2019-04-28T01:10:16.652Z,11.50
2019-04-28T01:12:47.825Z,11.40
2019-04-28T01:15:29.406Z,11.40
2019-04-28T01:18:10.474Z,11.40
2019-04-28T01:20:41.250Z,11.30
2019-04-28T01:23:12.327Z,11.30
2019-04-28T01:25:42.919Z,11.30
2019-04-28T01:28:14.062Z,11.20
2019-04-28T01:31:09.681Z,11.20
2019-04-28T01:34:02.500Z,11.20
2019-04-28T01:36:35.254Z,11.10
2019-04-28T01:39:07.278Z,11.10
2019-04-28T01:41:39.766Z,11.10
2019-04-28T01:44:12.848Z,11.10
2019-04-28T01:46:43.434Z,11.10
2019-04-28T01:49:14.584Z,11.00
2019-04-28T01:51:46.981Z,11.00
2019-04-28T01:54:17.657Z,11.00
2019-04-28T01:56:50.161Z,11.00
2019-04-28T01:59:22.292Z,11.00
2019-04-28T02:01:53.098Z,11.00
2019-04-28T02:04:23.994Z,10.90
2019-04-28T02:06:54.921Z,10.90
2019-04-28T02:09:26.286Z,10.90
2019-04-28T02:11:57.667Z,10.90
2019-04-28T02:14:28.162Z,10.90
2019-04-28T02:17:00.739Z,10.90
2019-04-28T02:19:33.019Z,10.90
2019-04-28T02:22:11.138Z,10.80
2019-04-28T02:24:42.134Z,10.80
2019-04-28T02:27:12.724Z,10.80
2019-04-28T02:29:43.562Z,10.80
2019-04-28T02:32:16.499Z,10.80
2019-04-28T02:34:47.132Z,10.80
2019-04-28T02:37:20.266Z,10.80
2019-04-28T02:39:52.681Z,10.70
2019-04-28T02:42:23.434Z,10.70
2019-04-28T02:44:54.695Z,10.60
2019-04-28T02:47:25.699Z,10.60
2019-04-28T02:50:15.361Z,10.60
2019-04-28T02:53:13.793Z,10.60
2019-04-28T02:55:44.803Z,10.60
2019-04-28T02:58:15.674Z,10.50
2019-04-28T03:01:01.110Z,10.50
2019-04-28T03:03:21.141Z,10.50
2019-04-28T03:05:52.844Z,10.50
2019-04-28T03:08:23.539Z,10.40
2019-04-28T03:10:56.646Z,10.40
2019-04-28T03:13:30.550Z,10.40
2019-04-28T03:16:01.862Z,10.40
2019-04-28T03:18:32.731Z,10.40
2019-04-28T03:21:04.487Z,10.30
2019-04-28T03:23:35.759Z,10.30
2019-04-28T03:26:25.360Z,10.30
2019-04-28T03:29:01.494Z,10.30
2019-04-28T03:32:13.836Z,10.30
2019-04-28T03:34:23.356Z,10.30
2019-04-28T03:36:51.925Z,10.30
2019-04-28T03:39:23.733Z,10.20
2019-04-28T03:41:54.340Z,10.20
2019-04-28T03:44:25.127Z,10.20
2019-04-28T03:46:56.410Z,10.20
2019-04-28T03:49:34.784Z,10.20
2019-04-28T03:52:06.446Z,10.10
2019-04-28T03:54:37.083Z,10.20
2019-04-28T03:57:11.358Z,10.10
2019-04-28T03:59:43.765Z,10.20
2019-04-28T04:02:15.265Z,10.20
2019-04-28T04:04:46.166Z,10.10
2019-04-28T04:07:17.057Z,10.10
2019-04-28T04:10:00.772Z,10.10
2019-04-28T04:12:41.216Z,10.10
2019-04-28T04:15:41.079Z,10.10
2019-04-28T04:18:15.548Z,10.20
2019-04-28T04:20:46.487Z,10.20
2019-04-28T04:23:20.779Z,10.20
2019-04-28T04:25:51.214Z,10.30
2019-04-28T04:28:22.210Z,10.30
2019-04-28T04:30:53.335Z,10.30
2019-04-28T04:33:24.387Z,10.30
2019-04-28T04:35:55.094Z,10.40
2019-04-28T04:38:25.492Z,10.30
2019-04-28T04:40:56.391Z,10.40
2019-04-28T04:43:27.420Z,10.40
2019-04-28T04:46:15.785Z,10.40
2019-04-28T04:48:46.562Z,10.40
2019-04-28T04:51:17.934Z,10.40
2019-04-28T04:53:51.107Z,10.40
2019-04-28T04:56:22.786Z,10.50
2019-04-28T04:58:53.634Z,10.50
2019-04-28T05:01:43.106Z,10.50
2019-04-28T05:04:23.636Z,10.60
2019-04-28T05:06:54.572Z,10.60
2019-04-28T05:09:29.346Z,10.70
2019-04-28T05:12:04.314Z,10.70
2019-04-28T05:14:39.504Z,10.70
2019-04-28T05:17:11.255Z,10.80
2019-04-28T05:19:41.901Z,10.80
2019-04-28T05:22:13.406Z,10.80
2019-04-28T05:25:03.224Z,10.90
2019-04-28T05:27:33.713Z,10.90
2019-04-28T05:30:05.522Z,10.90
2019-04-28T05:32:43.195Z,11.00
2019-04-28T05:35:10.532Z,11.00
2019-04-28T05:37:41.610Z,11.10
2019-04-28T05:40:14.468Z,11.10
2019-04-28T05:43:00.801Z,11.10
2019-04-28T05:45:32.702Z,11.20
2019-04-28T05:48:03.624Z,11.20
2019-04-28T05:50:50.050Z,11.30
2019-04-28T05:53:30.080Z,11.30
2019-04-28T05:56:15.335Z,11.30
2019-04-28T05:58:50.436Z,11.40
2019-04-28T06:01:55.736Z,11.40
2019-04-28T06:04:30.293Z,11.40
2019-04-28T06:07:07.567Z,11.50
2019-04-28T06:09:47.798Z,11.50
2019-04-28T06:12:21.427Z,11.60
2019-04-28T06:14:55.945Z,11.60
2019-04-28T06:17:29.504Z,11.70
2019-04-28T06:20:03.594Z,11.80
2019-04-28T06:22:34.586Z,11.80
2019-04-28T06:25:05.453Z,11.90
2019-04-28T06:27:36.239Z,11.90
2019-04-28T06:30:07.618Z,12.00
2019-04-28T06:32:38.803Z,12.00
2019-04-28T06:35:09.430Z,12.10
2019-04-28T06:37:40.366Z,12.10
2019-04-28T06:40:11.790Z,12.10
2019-04-28T06:42:43.200Z,12.20
2019-04-28T06:45:14.427Z,12.30
2019-04-28T06:47:45.370Z,12.30
2019-04-28T06:50:16.863Z,12.40
2019-04-28T06:52:48.648Z,12.50
2019-04-28T06:55:19.451Z,12.60
2019-04-28T06:57:50.020Z,12.60
2019-04-28T07:00:20.814Z,12.60
2019-04-28T07:02:51.959Z,12.70
2019-04-28T07:05:23.392Z,12.80
2019-04-28T07:08:05.892Z,12.80
2019-04-28T07:10:39.774Z,12.90
2019-04-28T07:13:10.718Z,12.90
2019-04-28T07:15:41.876Z,13.00
2019-04-28T07:18:12.942Z,13.10
2019-04-28T07:20:50.199Z,13.30
2019-04-28T07:23:21.258Z,13.40
2019-04-28T07:25:52.628Z,13.50
2019-04-28T07:28:24.009Z,13.60
2019-04-28T07:30:55.490Z,13.70
2019-04-28T07:33:35.890Z,13.90
2019-04-28T07:35:58.927Z,14.10
2019-04-28T07:38:29.615Z,14.30
2019-04-28T07:41:00.486Z,14.50
2019-04-28T07:43:33.010Z,14.70
2019-04-28T07:46:03.988Z,15.00
2019-04-28T07:48:34.659Z,15.20
2019-04-28T07:51:05.695Z,15.50
2019-04-28T07:53:55.310Z,15.80
2019-04-28T07:56:26.262Z,16.10
2019-04-28T07:58:56.802Z,16.50
2019-04-28T08:01:29.634Z,16.90
2019-04-28T08:04:00.355Z,17.30
2019-04-28T08:06:30.910Z,17.70
2019-04-28T08:09:02.789Z,18.10
2019-04-28T08:11:35.094Z,18.40
2019-04-28T08:14:06.099Z,18.80
2019-04-28T08:16:36.686Z,19.20
2019-04-28T08:19:08.090Z,19.50
2019-04-28T08:21:38.887Z,19.90
2019-04-28T08:24:09.871Z,20.30
2019-04-28T08:26:40.651Z,20.70
2019-04-28T08:29:11.575Z,21.00
2019-04-28T08:31:49.981Z,21.40
2019-04-28T08:34:21.631Z,21.80
2019-04-28T08:36:53.163Z,22.20
2019-04-28T08:39:26.686Z,22.50
2019-04-28T08:41:56.703Z,22.80
2019-04-28T08:44:27.549Z,23.20
2019-04-28T08:46:58.153Z,23.50
2019-04-28T08:49:29.337Z,23.80
2019-04-28T08:52:00.339Z,23.90
2019-04-28T08:54:31.192Z,24.20
2019-04-28T08:57:02.144Z,24.40
2019-04-28T08:59:32.726Z,24.70
2019-04-28T09:02:03.742Z,25.00
2019-04-28T09:04:34.959Z,25.30
2019-04-28T09:07:06.074Z,25.50
2019-04-28T09:09:37.311Z,25.80
2019-04-28T09:12:08.077Z,26.00
2019-04-28T09:14:39.451Z,26.30
2019-04-28T09:17:10.234Z,26.60
2019-04-28T09:19:42.452Z,26.90
2019-04-28T09:22:13.472Z,27.20
2019-04-28T09:24:47.246Z,27.40
2019-04-28T09:27:18.883Z,27.60
2019-04-28T09:29:49.751Z,27.80
2019-04-28T09:32:20.328Z,28.00
2019-04-28T09:34:51.308Z,28.20
2019-04-28T09:37:21.939Z,28.40
2019-04-28T09:40:11.657Z,28.50
2019-04-28T09:43:10.086Z,28.70
2019-04-28T09:45:52.648Z,28.90
2019-04-28T09:48:23.520Z,29.20
2019-04-28T09:50:54.174Z,29.50
2019-04-28T09:53:26.146Z,29.70
2019-04-28T09:55:56.806Z,29.90
2019-04-28T09:58:27.494Z,30.10
2019-04-28T10:00:58.185Z,30.40
2019-04-28T10:03:29.734Z,30.60
2019-04-28T10:06:00.416Z,30.80
2019-04-28T10:08:31.138Z,30.90
2019-04-28T10:11:02.290Z,31.10
2019-04-28T10:13:33.147Z,31.30
2019-04-28T10:16:03.849Z,31.40
2019-04-28T10:18:34.834Z,31.30
2019-04-28T10:21:05.610Z,31.20
2019-04-28T10:23:36.254Z,31.20
2019-04-28T10:26:07.207Z,31.10
2019-04-28T10:28:41.571Z,31.20
2019-04-28T10:31:13.490Z,31.20
2019-04-28T10:33:46.535Z,31.20
2019-04-28T10:36:17.494Z,31.30
2019-04-28T10:38:49.846Z,31.30
2019-04-28T10:41:31.058Z,31.40
2019-04-28T10:44:02.175Z,31.50
2019-04-28T10:46:32.882Z,31.60
2019-04-28T10:49:04.004Z,31.80
2019-04-28T10:51:34.761Z,31.90
2019-04-28T10:54:05.756Z,32.00
2019-04-28T10:56:36.683Z,32.10
2019-04-28T10:59:07.323Z,32.40
2019-04-28T11:01:37.878Z,32.50
2019-04-28T11:04:15.862Z,32.70
2019-04-28T11:06:46.844Z,33.10
2019-04-28T11:09:30.739Z,33.40
2019-04-28T11:12:01.903Z,33.80
2019-04-28T11:14:32.697Z,34.30
2019-04-28T11:17:04.782Z,34.60
2019-04-28T11:19:35.585Z,35.20
2019-04-28T11:22:06.639Z,35.30
2019-04-28T11:24:37.581Z,35.70
2019-04-28T11:27:09.386Z,36.10
2019-04-28T11:29:40.174Z,36.30
2019-04-28T11:32:11.391Z,36.30
2019-04-28T11:35:04.039Z,36.30
2019-04-28T11:37:34.827Z,36.50
2019-04-28T11:40:06.097Z,36.50
2019-04-28T11:42:37.026Z,36.30
2019-04-28T11:45:08.295Z,35.90
2019-04-28T11:47:39.546Z,35.30
2019-04-28T11:50:10.467Z,34.60
2019-04-28T11:52:43.946Z,33.80
2019-04-28T11:55:14.736Z,33.20
2019-04-28T11:57:46.073Z,32.50
2019-04-28T12:00:25.800Z,31.80
2019-04-28T12:02:56.770Z,31.40
2019-04-28T12:05:34.559Z,31.00
2019-04-28T12:08:05.842Z,30.70
2019-04-28T12:10:41.587Z,30.30
2019-04-28T12:13:42.271Z,30.00
2019-04-28T12:16:31.346Z,29.70
2019-04-28T12:19:21.193Z,29.40
2019-04-28T12:21:52.042Z,29.10
2019-04-28T12:24:22.823Z,28.90
2019-04-28T12:26:55.307Z,28.60
2019-04-28T12:29:27.360Z,28.40
2019-04-28T12:31:58.403Z,28.30
2019-04-28T12:34:30.236Z,28.10
2019-04-28T12:37:01.366Z,28.00
2019-04-28T12:39:31.914Z,27.90
2019-04-28T12:42:03.038Z,27.80
2019-04-28T12:44:34.175Z,27.60
2019-04-28T12:47:05.526Z,27.60
2019-04-28T12:49:52.647Z,27.40
2019-04-28T12:52:23.356Z,27.30
2019-04-28T12:54:56.238Z,27.10
2019-04-28T12:57:27.075Z,27.00
2019-04-28T13:00:14.341Z,27.00
2019-04-28T13:03:04.462Z,26.90
2019-04-28T13:05:43.020Z,26.80
2019-04-28T13:08:13.443Z,26.70
2019-04-28T13:10:44.222Z,26.60
2019-04-28T13:13:15.127Z,26.30
2019-04-28T13:15:46.915Z,26.20
2019-04-28T13:18:18.734Z,26.00
2019-04-28T13:20:49.277Z,25.90
2019-04-28T13:23:20.038Z,25.60
2019-04-28T13:25:52.054Z,25.50
2019-04-28T13:28:22.941Z,25.50
2019-04-28T13:30:54.080Z,25.30
2019-04-28T13:33:24.926Z,25.20
2019-04-28T13:35:55.782Z,25.10
2019-04-28T13:38:26.879Z,25.00
2019-04-28T13:40:57.571Z,24.90
2019-04-28T13:43:28.324Z,24.70
2019-04-28T13:45:59.639Z,24.70
2019-04-28T13:48:31.746Z,24.60
2019-04-28T13:51:02.582Z,24.50
2019-04-28T13:53:35.954Z,24.40
2019-04-28T13:56:07.053Z,24.30
2019-04-28T13:58:43.907Z,24.20
2019-04-28T14:01:33.808Z,24.00
2019-04-28T14:04:23.156Z,24.00
2019-04-28T14:07:00.512Z,23.90
2019-04-28T14:09:32.986Z,23.80
2019-04-28T14:12:04.249Z,23.70
2019-04-28T14:14:35.212Z,23.60
2019-04-28T14:17:06.483Z,23.60
2019-04-28T14:19:38.601Z,23.50
2019-04-28T14:22:09.478Z,23.40
2019-04-28T14:24:40.231Z,23.30
2019-04-28T14:27:11.302Z,23.30
2019-04-28T14:29:41.793Z,23.20
2019-04-28T14:32:13.366Z,23.00
2019-04-28T14:34:44.950Z,22.90
2019-04-28T14:37:15.965Z,22.90
2019-04-28T14:40:20.501Z,22.80
2019-04-28T14:42:51.790Z,22.70
2019-04-28T14:45:25.469Z,22.60
2019-04-28T14:47:56.417Z,22.50
2019-04-28T14:50:27.629Z,22.40
2019-04-28T14:52:58.742Z,22.30
2019-04-28T14:55:29.436Z,22.20
2019-04-28T14:58:00.850Z,22.10
2019-04-28T15:00:39.056Z,22.00
2019-04-28T15:03:12.615Z,21.90
2019-04-28T15:06:07.302Z,21.80
2019-04-28T15:08:46.006Z,21.70
2019-04-28T15:11:38.689Z,21.60
2019-04-28T15:14:09.231Z,21.50
2019-04-28T15:16:40.093Z,21.50
2019-04-28T15:19:10.962Z,21.40
2019-04-28T15:21:41.607Z,21.30
2019-04-28T15:24:12.262Z,21.20
2019-04-28T15:26:42.991Z,21.00
2019-04-28T15:29:14.118Z,21.00
2019-04-28T15:31:48.522Z,20.90
2019-04-28T15:34:21.864Z,20.80
2019-04-28T15:36:54.377Z,20.70
2019-04-28T15:39:25.154Z,20.60
2019-04-28T15:41:56.185Z,20.50
2019-04-28T15:44:28.424Z,20.40
2019-04-28T15:46:59.214Z,20.30
2019-04-28T15:49:30.258Z,20.20
2019-04-28T15:52:01.069Z,20.10
2019-04-28T15:54:32.112Z,20.10
2019-04-28T15:57:02.712Z,20.00
2019-04-28T15:59:33.190Z,19.90
2019-04-28T16:02:03.941Z,19.80
2019-04-28T16:04:35.996Z,19.80
2019-04-28T16:07:08.166Z,19.70
2019-04-28T16:09:41.128Z,19.60
2019-04-28T16:12:11.867Z,19.50
2019-04-28T16:14:42.470Z,19.50
2019-04-28T16:17:13.282Z,19.40
2019-04-28T16:19:43.891Z,19.30
2019-04-28T16:22:14.838Z,19.20
2019-04-28T16:24:45.714Z,19.20
2019-04-28T16:27:16.432Z,19.10
2019-04-28T16:29:47.186Z,19.00
2019-04-28T16:32:17.948Z,19.00
2019-04-28T16:34:49.466Z,18.90
2019-04-28T16:37:20.041Z,18.80
2019-04-28T16:39:52.545Z,18.70
2019-04-28T16:42:37.946Z,18.70
2019-04-28T16:45:21.165Z,18.60
2019-04-28T16:47:53.989Z,18.50
2019-04-28T16:50:26.066Z,18.40
2019-04-28T16:52:56.745Z,18.40
2019-04-28T16:55:34.516Z,18.20
2019-04-28T16:58:21.748Z,18.20
2019-04-28T17:01:11.570Z,18.10
2019-04-28T17:03:42.351Z,18.10
2019-04-28T17:06:13.177Z,18.00
2019-04-28T17:08:44.682Z,17.90
2019-04-28T17:11:15.565Z,17.80
2019-04-28T17:13:46.210Z,17.70
2019-04-28T17:16:17.190Z,17.70
2019-04-28T17:18:47.988Z,17.60
2019-04-28T17:21:19.729Z,17.60
2019-04-28T17:23:50.867Z,17.50
2019-04-28T17:26:21.602Z,17.50
2019-04-28T17:28:52.347Z,17.40
2019-04-28T17:31:23.539Z,17.40
2019-04-28T17:33:54.666Z,17.30
2019-04-28T17:36:26.923Z,17.30
2019-04-28T17:38:58.404Z,17.20
2019-04-28T17:41:29.506Z,17.10
2019-04-28T17:44:00.307Z,17.00
2019-04-28T17:46:31.572Z,17.00
2019-04-28T17:49:02.443Z,16.90
2019-04-28T17:51:33.375Z,16.90
2019-04-28T17:54:04.059Z,16.80
2019-04-28T17:56:34.651Z,16.80
2019-04-28T17:59:05.954Z,16.70
2019-04-28T18:02:13.583Z,16.70
2019-04-28T18:05:06.415Z,16.60
2019-04-28T18:07:38.203Z,16.60
2019-04-28T18:10:09.204Z,16.50
2019-04-28T18:12:40.370Z,16.50
2019-04-28T18:15:36.247Z,16.40
2019-04-28T18:18:32.535Z,16.30
2019-04-28T18:21:03.431Z,16.20
2019-04-28T18:23:35.351Z,16.10
2019-04-28T18:26:06.855Z,16.00
2019-04-28T18:28:38.638Z,15.90
2019-04-28T18:31:27.079Z,15.80
2019-04-28T18:34:22.800Z,15.60
2019-04-28T18:37:05.596Z,15.50
2019-04-28T18:39:55.439Z,15.40
2019-04-28T18:42:38.935Z,15.20
2019-04-28T18:45:10.653Z,15.20
2019-04-28T18:47:41.393Z,15.00
2019-04-28T18:50:12.337Z,15.00
2019-04-28T18:52:43.382Z,14.90
2019-04-28T18:55:16.406Z,14.90
2019-04-28T18:57:47.279Z,14.80
2019-04-28T19:00:20.118Z,14.70
2019-04-28T19:02:51.423Z,14.60
2019-04-28T19:05:23.602Z,14.50
2019-04-28T19:08:15.956Z,14.50
2019-04-28T19:11:09.012Z,14.30
2019-04-28T19:13:53.194Z,14.30
2019-04-28T19:16:41.649Z,14.10
2019-04-28T19:19:13.416Z,14.00
2019-04-28T19:21:54.652Z,13.90
2019-04-28T19:24:27.080Z,13.90
2019-04-28T19:26:57.932Z,13.80
2019-04-28T19:29:28.526Z,13.70
2019-04-28T19:31:59.268Z,13.70
2019-04-28T19:34:29.894Z,13.70
2019-04-28T19:37:01.814Z,13.60
2019-04-28T19:39:33.064Z,13.50
2019-04-28T19:42:04.117Z,13.40
2019-04-28T19:44:36.566Z,13.40
2019-04-28T19:47:07.974Z,13.50
2019-04-28T19:49:38.653Z,13.40
2019-04-28T19:52:09.674Z,13.30
2019-04-28T19:54:59.458Z,13.20
2019-04-28T19:57:37.071Z,13.20
2019-04-28T20:00:22.331Z,13.20
2019-04-28T20:02:57.270Z,13.20
2019-04-28T20:05:27.956Z,13.20
2019-04-28T20:07:58.973Z,13.20
2019-04-28T20:10:29.743Z,13.20
2019-04-28T20:13:00.686Z,13.20
2019-04-28T20:15:31.568Z,13.20
2019-04-28T20:18:02.411Z,13.20
2019-04-28T20:20:33.367Z,13.20
2019-04-28T20:23:04.050Z,13.20
2019-04-28T20:25:34.855Z,13.20
2019-04-28T20:28:05.937Z,13.20
2019-04-28T20:30:36.510Z,13.20
2019-04-28T20:33:07.902Z,13.10
2019-04-28T20:35:43.112Z,13.00
2019-04-28T20:38:23.282Z,12.90
2019-04-28T20:41:00.793Z,12.90
2019-04-28T20:43:31.699Z,12.80
2019-04-28T20:46:02.364Z,12.80
2019-04-28T20:48:35.138Z,12.80
2019-04-28T20:51:06.220Z,12.80
2019-04-28T20:53:36.802Z,12.80
2019-04-28T20:56:07.550Z,12.80
2019-04-28T20:58:38.451Z,12.70
2019-04-28T21:01:09.591Z,12.60
2019-04-28T21:03:40.403Z,12.60
2019-04-28T21:06:11.179Z,12.50
2019-04-28T21:08:42.114Z,12.50
2019-04-28T21:11:12.922Z,12.40
2019-04-28T21:13:43.724Z,12.40
2019-04-28T21:16:14.795Z,12.30
2019-04-28T21:18:45.551Z,12.30
2019-04-28T21:21:16.626Z,12.20
2019-04-28T21:23:47.620Z,12.20
2019-04-28T21:26:18.352Z,12.20
2019-04-28T21:28:49.981Z,12.20
2019-04-28T21:31:20.850Z,12.10
2019-04-28T21:33:52.412Z,12.10
2019-04-28T21:36:23.192Z,12.00
2019-04-28T21:38:54.074Z,12.00
2019-04-28T21:41:24.655Z,12.00
2019-04-28T21:44:14.615Z,12.00
2019-04-28T21:46:52.555Z,11.90
2019-04-28T21:49:28.856Z,11.90
2019-04-28T21:51:59.783Z,11.90
2019-04-28T21:54:30.822Z,11.90
2019-04-28T21:57:01.538Z,11.80
2019-04-28T21:59:32.075Z,11.80
2019-04-28T22:02:02.870Z,11.70
2019-04-28T22:04:33.432Z,11.70
2019-04-28T22:07:04.222Z,11.60
2019-04-28T22:09:35.064Z,11.60
2019-04-28T22:12:07.273Z,11.50
2019-04-28T22:14:39.368Z,11.50
2019-04-28T22:17:10.611Z,11.40
2019-04-28T22:19:41.624Z,11.40
2019-04-28T22:22:12.055Z,11.30
2019-04-28T22:24:47.732Z,11.30
2019-04-28T22:27:24.856Z,11.20
2019-04-28T22:29:55.962Z,11.20
2019-04-28T22:32:26.808Z,11.20
2019-04-28T22:34:57.600Z,11.10
2019-04-28T22:37:28.358Z,11.10
2019-04-28T22:39:59.235Z,11.10
2019-04-28T22:42:31.270Z,11.00
2019-04-28T22:45:02.207Z,11.00
2019-04-28T22:47:32.716Z,10.90
2019-04-28T22:50:03.585Z,10.90
2019-04-28T22:52:34.669Z,10.90
2019-04-28T22:55:13.548Z,10.90
2019-04-28T22:57:56.926Z,10.80
2019-04-28T23:00:50.121Z,10.80
2019-04-28T23:03:48.866Z,10.70
2019-04-28T23:06:20.012Z,10.60
2019-04-28T23:08:51.151Z,10.60
2019-04-28T23:11:22.411Z,10.50
2019-04-28T23:13:52.988Z,10.40
2019-04-28T23:16:24.083Z,10.40
2019-04-28T23:18:54.868Z,10.30
2019-04-28T23:21:42.479Z,10.40
2019-04-28T23:24:13.418Z,10.40
2019-04-28T23:26:44.337Z,10.30
2019-04-28T23:29:14.871Z,10.20
2019-04-28T23:31:45.538Z,10.20
2019-04-28T23:34:16.322Z,10.10
2019-04-28T23:36:47.886Z,10.10
2019-04-28T23:39:18.534Z,10.10
2019-04-28T23:42:03.438Z,10.00
2019-04-28T23:44:34.280Z,10.00
2019-04-28T23:47:06.511Z,10.00
2019-04-28T23:49:37.267Z,9.90
2019-04-28T23:52:33.026Z,9.90
2019-04-28T23:55:05.271Z,9.80
2019-04-28T23:57:36.443Z,9.80
